createdAt,value
2018-11-23T00:01:54.805Z,-0.12
2018-11-23T00:04:22.072Z,-0.15
2018-11-23T00:06:49.345Z,-0.18
2018-11-23T00:09:17.804Z,-0.21
2018-11-23T00:11:45.051Z,-0.23
2018-11-23T00:14:12.300Z,-0.25
2018-11-23T00:16:39.664Z,-0.27
2018-11-23T00:19:06.944Z,-0.30
2018-11-23T00:21:34.633Z,-0.34
2018-11-23T00:24:01.928Z,-0.37
2018-11-23T00:26:29.189Z,-0.38
2018-11-23T00:28:56.452Z,-0.40
2018-11-23T00:31:23.698Z,-0.44
2018-11-23T00:33:50.951Z,-0.49
2018-11-23T00:36:18.556Z,-0.53
2018-11-23T00:38:45.816Z,-0.57
2018-11-23T00:41:13.095Z,-0.59
2018-11-23T00:43:40.368Z,-0.63
2018-11-23T00:46:07.665Z,-0.63
2018-11-23T00:48:34.932Z,-0.65
2018-11-23T00:51:02.214Z,-0.67
2018-11-23T00:53:29.485Z,-0.67
2018-11-23T00:55:56.723Z,-0.70
2018-11-23T00:58:23.989Z,-0.71
2018-11-23T01:00:51.239Z,-0.72
2018-11-23T01:03:18.544Z,-0.75
2018-11-23T01:05:45.797Z,-0.76
2018-11-23T01:08:13.104Z,-0.77
2018-11-23T01:10:40.376Z,-0.77
2018-11-23T01:13:07.629Z,-0.79
2018-11-23T01:15:34.946Z,-0.80
2018-11-23T01:18:02.218Z,-0.78
2018-11-23T01:20:29.670Z,-0.78
2018-11-23T01:22:57.554Z,-0.79
2018-11-23T01:25:25.709Z,-0.78
2018-11-23T01:27:53.747Z,-0.76
2018-11-23T01:30:22.458Z,-0.76
2018-11-23T01:32:49.712Z,-0.75
2018-11-23T01:35:17.054Z,-0.76
2018-11-23T01:37:44.331Z,-0.77
2018-11-23T01:40:12.066Z,-0.77
2018-11-23T01:42:39.321Z,-0.79
2018-11-23T01:45:06.590Z,-0.81
2018-11-23T01:47:33.883Z,-0.84
2018-11-23T01:50:01.456Z,-0.87
2018-11-23T01:52:28.704Z,-0.87
2018-11-23T01:54:55.960Z,-0.87
2018-11-23T01:57:23.217Z,-0.89
2018-11-23T01:59:50.482Z,-0.90
2018-11-23T02:02:17.774Z,-0.91
2018-11-23T02:04:45.020Z,-0.92
2018-11-23T02:07:12.268Z,-0.93
2018-11-23T02:09:39.557Z,-0.94
2018-11-23T02:12:06.857Z,-0.95
2018-11-23T02:14:34.121Z,-0.96
2018-11-23T02:17:01.416Z,-0.98
2018-11-23T02:19:28.722Z,-0.99
2018-11-23T02:21:55.976Z,-1.01
2018-11-23T02:24:23.240Z,-0.99
2018-11-23T02:26:50.493Z,-0.97
2018-11-23T02:29:17.760Z,-0.98
2018-11-23T02:31:45.036Z,-1.00
2018-11-23T02:34:12.292Z,-1.01
2018-11-23T02:36:39.536Z,-1.02
2018-11-23T02:39:06.786Z,-1.03
2018-11-23T02:41:34.357Z,-1.04
2018-11-23T02:44:01.686Z,-1.05
2018-11-23T02:46:28.961Z,-1.09
2018-11-23T02:48:56.295Z,-1.11
2018-11-23T02:51:23.654Z,-1.13
2018-11-23T02:53:50.921Z,-1.14
2018-11-23T02:56:18.277Z,-1.14
2018-11-23T02:58:45.549Z,-1.14
2018-11-23T03:01:12.853Z,-1.15
2018-11-23T03:03:40.444Z,-1.17
2018-11-23T03:06:07.704Z,-1.19
2018-11-23T03:08:34.965Z,-1.20
2018-11-23T03:11:02.233Z,-1.22
2018-11-23T03:13:29.536Z,-1.26
2018-11-23T03:15:56.829Z,-1.28
2018-11-23T03:18:24.080Z,-1.29
2018-11-23T03:20:51.343Z,-1.30
2018-11-23T03:23:18.630Z,-1.34
2018-11-23T03:25:45.889Z,-1.37
2018-11-23T03:28:13.155Z,-1.39
2018-11-23T03:30:40.432Z,-1.42
2018-11-23T03:33:07.705Z,-1.43
2018-11-23T03:35:34.981Z,-1.45
2018-11-23T03:38:02.269Z,-1.47
2018-11-23T03:40:29.922Z,-1.50
2018-11-23T03:42:57.227Z,-1.51
2018-11-23T03:45:24.521Z,-1.49
2018-11-23T03:47:51.805Z,-1.48
2018-11-23T03:50:19.336Z,-1.46
2018-11-23T03:52:46.854Z,-1.46
2018-11-23T03:55:14.155Z,-1.44
2018-11-23T03:57:41.444Z,-1.42
2018-11-23T04:00:08.716Z,-1.45
2018-11-23T04:02:35.978Z,-1.46
2018-11-23T04:05:03.269Z,-1.46
2018-11-23T04:07:30.558Z,-1.47
2018-11-23T04:09:57.858Z,-1.49
2018-11-23T04:12:25.136Z,-1.46
2018-11-23T04:14:52.452Z,-1.44
2018-11-23T04:17:19.829Z,-1.44
2018-11-23T04:19:47.121Z,-1.45
2018-11-23T04:22:14.789Z,-1.47
2018-11-23T04:24:42.137Z,-1.46
2018-11-23T04:27:09.397Z,-1.48
2018-11-23T04:29:36.690Z,-1.51
2018-11-23T04:32:04.486Z,-1.50
2018-11-23T04:34:31.751Z,-1.53
2018-11-23T04:36:59.013Z,-1.57
2018-11-23T04:39:26.379Z,-1.58
2018-11-23T04:41:54.093Z,-1.59
2018-11-23T04:44:21.359Z,-1.59
2018-11-23T04:46:48.695Z,-1.60
2018-11-23T04:49:16.041Z,-1.60
2018-11-23T04:51:43.681Z,-1.61
2018-11-23T04:54:10.954Z,-1.64
2018-11-23T04:56:38.221Z,-1.66
2018-11-23T04:59:05.532Z,-1.67
2018-11-23T05:01:33.314Z,-1.68
2018-11-23T05:04:00.679Z,-1.66
2018-11-23T05:06:27.968Z,-1.64
2018-11-23T05:08:55.646Z,-1.63
2018-11-23T05:11:22.899Z,-1.63
2018-11-23T05:13:50.172Z,-1.61
2018-11-23T05:16:17.445Z,-1.61
2018-11-23T05:18:44.696Z,-1.60
2018-11-23T05:21:11.961Z,-1.59
2018-11-23T05:23:39.616Z,-1.59
2018-11-23T05:26:07.197Z,-1.59
2018-11-23T05:28:34.486Z,-1.55
2018-11-23T05:31:02.197Z,-1.52
2018-11-23T05:33:29.501Z,-1.51
2018-11-23T05:35:56.769Z,-1.50
2018-11-23T05:38:24.317Z,-1.53
2018-11-23T05:40:51.644Z,-1.53
2018-11-23T05:43:18.914Z,-1.55
2018-11-23T05:45:46.509Z,-1.57
2018-11-23T05:48:13.818Z,-1.60
2018-11-23T05:50:41.085Z,-1.60
2018-11-23T05:53:09.316Z,-1.60
2018-11-23T05:55:36.580Z,-1.57
2018-11-23T05:58:03.901Z,-1.55
2018-11-23T06:00:32.454Z,-1.54
2018-11-23T06:02:59.732Z,-1.54
2018-11-23T06:05:27.164Z,-1.52
2018-11-23T06:07:54.889Z,-1.52
2018-11-23T06:10:22.553Z,-1.51
2018-11-23T06:12:49.837Z,-1.52
2018-11-23T06:15:18.607Z,-1.51
2018-11-23T06:17:46.441Z,-1.50
2018-11-23T06:20:14.820Z,-1.50
2018-11-23T06:22:42.761Z,-1.50
2018-11-23T06:25:10.288Z,-1.51
2018-11-23T06:27:37.625Z,-1.54
2018-11-23T06:30:05.273Z,-1.57
2018-11-23T06:32:32.552Z,-1.57
2018-11-23T06:35:00.735Z,-1.59
2018-11-23T06:37:29.104Z,-1.62
2018-11-23T06:39:57.491Z,-1.62
2018-11-23T06:42:24.792Z,-1.62
2018-11-23T06:44:53.357Z,-1.64
2018-11-23T06:47:20.650Z,-1.66
2018-11-23T06:49:47.949Z,-1.70
2018-11-23T06:52:15.604Z,-1.72
2018-11-23T06:54:42.891Z,-1.67
2018-11-23T06:57:10.161Z,-1.61
2018-11-23T06:59:37.772Z,-1.55
2018-11-23T07:02:05.031Z,-1.49
2018-11-23T07:04:32.317Z,-1.42
2018-11-23T07:07:00.764Z,-1.37
2018-11-23T07:09:28.307Z,-1.35
2018-11-23T07:11:55.568Z,-1.35
2018-11-23T07:14:23.339Z,-1.34
2018-11-23T07:16:50.616Z,-1.36
2018-11-23T07:19:17.896Z,-1.37
2018-11-23T07:21:45.512Z,-1.37
2018-11-23T07:24:12.790Z,-1.38
2018-11-23T07:26:40.064Z,-1.34
2018-11-23T07:29:07.780Z,-1.32
2018-11-23T07:31:35.822Z,-1.31
2018-11-23T07:34:03.086Z,-1.30
2018-11-23T07:36:30.788Z,-1.28
2018-11-23T07:38:59.416Z,-1.25
2018-11-23T07:41:26.668Z,-1.22
2018-11-23T07:43:54.400Z,-1.22
2018-11-23T07:46:21.725Z,-1.21
2018-11-23T07:48:49.938Z,-1.19
2018-11-23T07:51:17.596Z,-1.18
2018-11-23T07:53:44.932Z,-1.18
2018-11-23T07:56:12.230Z,-1.16
2018-11-23T07:58:39.920Z,-1.14
2018-11-23T08:01:07.880Z,-1.09
2018-11-23T08:03:35.126Z,-1.00
2018-11-23T08:06:02.710Z,-0.95
2018-11-23T08:08:29.977Z,-0.83
2018-11-23T08:10:56.317Z,-0.59
2018-11-23T08:13:24.077Z,-0.40
2018-11-23T08:15:51.354Z,-0.22
2018-11-23T08:18:18.667Z,-0.10
2018-11-23T08:20:46.411Z,0.04
2018-11-23T08:23:14.345Z,0.22
2018-11-23T08:25:42.672Z,0.51
2018-11-23T08:28:10.226Z,0.87
2018-11-23T08:30:39.105Z,1.10
2018-11-23T08:33:06.365Z,1.27
2018-11-23T08:35:34.015Z,1.38
2018-11-23T08:38:01.286Z,1.37
2018-11-23T08:40:28.699Z,1.32
2018-11-23T08:42:56.908Z,1.25
2018-11-23T08:45:25.967Z,1.19
2018-11-23T08:47:53.256Z,1.19
2018-11-23T08:50:22.317Z,1.21
2018-11-23T08:52:49.597Z,1.25
2018-11-23T08:55:17.572Z,1.25
2018-11-23T08:57:45.240Z,1.28
2018-11-23T09:00:13.829Z,1.31
2018-11-23T09:02:41.873Z,1.34
2018-11-23T09:05:09.441Z,1.36
2018-11-23T09:07:36.725Z,1.41
2018-11-23T09:10:05.337Z,1.48
2018-11-23T09:12:33.036Z,1.56
2018-11-23T09:15:00.352Z,1.61
2018-11-23T09:17:28.265Z,1.66
2018-11-23T09:19:55.884Z,1.75
2018-11-23T09:22:23.502Z,1.83
2018-11-23T09:24:50.541Z,1.91
2018-11-23T09:27:18.182Z,2.02
2018-11-23T09:29:45.467Z,2.14
2018-11-23T09:32:12.812Z,2.30
2018-11-23T09:34:40.805Z,2.44
2018-11-23T09:37:08.457Z,2.64
2018-11-23T09:39:35.828Z,2.84
2018-11-23T09:42:04.304Z,3.10
2018-11-23T09:44:31.654Z,3.54
2018-11-23T09:46:58.992Z,4.35
2018-11-23T09:49:26.610Z,5.46
2018-11-23T09:51:53.926Z,6.72
2018-11-23T09:54:21.213Z,8.04
2018-11-23T09:56:48.825Z,9.27
2018-11-23T09:59:16.130Z,10.32
2018-11-23T10:01:43.414Z,11.14
2018-11-23T10:04:11.013Z,11.91
2018-11-23T10:06:39.391Z,12.71
2018-11-23T10:09:06.676Z,13.33
2018-11-23T10:11:34.375Z,13.61
2018-11-23T10:14:01.908Z,13.86
2018-11-23T10:16:29.185Z,14.15
2018-11-23T10:18:56.793Z,14.39
2018-11-23T10:21:24.116Z,14.75
2018-11-23T10:23:51.485Z,15.08
2018-11-23T10:26:19.166Z,15.38
2018-11-23T10:28:46.513Z,15.73
2018-11-23T10:31:13.820Z,16.04
2018-11-23T10:33:41.525Z,16.28
2018-11-23T10:36:09.689Z,16.44
2018-11-23T10:38:36.972Z,16.72
2018-11-23T10:41:04.716Z,16.87
2018-11-23T10:43:31.994Z,16.94
2018-11-23T10:45:59.295Z,17.06
2018-11-23T10:48:26.891Z,17.16
2018-11-23T10:50:54.196Z,17.28
2018-11-23T10:53:21.521Z,17.37
2018-11-23T10:55:49.257Z,17.47
2018-11-23T10:58:17.141Z,17.59
2018-11-23T11:00:54.415Z,17.73
2018-11-23T11:03:33.569Z,17.82
2018-11-23T11:06:05.018Z,17.93
2018-11-23T11:08:32.719Z,18.13
2018-11-23T11:11:00.003Z,18.40
2018-11-23T11:13:27.287Z,18.64
2018-11-23T11:15:54.930Z,18.86
2018-11-23T11:18:22.213Z,18.89
2018-11-23T11:20:49.521Z,18.85
2018-11-23T11:23:17.252Z,18.76
2018-11-23T11:25:44.545Z,18.52
2018-11-23T11:28:11.820Z,18.29
2018-11-23T11:30:39.461Z,18.12
2018-11-23T11:33:06.726Z,18.07
2018-11-23T11:35:34.047Z,17.95
2018-11-23T11:38:01.826Z,17.69
2018-11-23T11:40:29.104Z,17.38
2018-11-23T11:42:56.414Z,17.20
2018-11-23T11:45:24.041Z,16.98
2018-11-23T11:47:51.427Z,16.55
2018-11-23T11:50:18.730Z,16.12
2018-11-23T11:52:47.718Z,15.82
2018-11-23T11:55:17.117Z,15.59
2018-11-23T11:57:45.665Z,15.15
2018-11-23T12:00:17.494Z,14.68
2018-11-23T12:02:44.787Z,14.24
2018-11-23T12:05:13.736Z,13.95
2018-11-23T12:07:41.406Z,13.72
2018-11-23T12:10:08.771Z,13.49
2018-11-23T12:12:36.072Z,13.31
2018-11-23T12:15:03.755Z,13.09
2018-11-23T12:17:33.693Z,12.80
2018-11-23T12:20:00.966Z,12.56
2018-11-23T12:22:28.716Z,12.31
2018-11-23T12:24:56.909Z,12.07
2018-11-23T12:27:24.255Z,11.85
2018-11-23T12:29:51.932Z,11.69
2018-11-23T12:32:19.250Z,11.56
2018-11-23T12:34:46.631Z,11.42
2018-11-23T12:37:14.325Z,11.34
2018-11-23T12:39:41.591Z,11.28
2018-11-23T12:42:08.845Z,11.21
2018-11-23T12:44:37.091Z,11.12
2018-11-23T12:47:04.385Z,11.04
2018-11-23T12:49:31.682Z,10.99
2018-11-23T12:51:59.273Z,10.93
2018-11-23T12:54:26.589Z,10.89
2018-11-23T12:56:54.816Z,10.87
2018-11-23T12:59:23.117Z,10.82
2018-11-23T13:01:50.404Z,10.73
2018-11-23T13:04:17.705Z,10.63
2018-11-23T13:06:45.422Z,10.55
2018-11-23T13:09:12.735Z,10.50
2018-11-23T13:11:41.226Z,10.44
2018-11-23T13:14:09.178Z,10.41
2018-11-23T13:16:36.468Z,10.36
2018-11-23T13:19:03.745Z,10.27
2018-11-23T13:21:31.404Z,10.19
2018-11-23T13:23:58.852Z,10.10
2018-11-23T13:26:26.128Z,10.03
2018-11-23T13:28:53.851Z,9.97
2018-11-23T13:31:21.144Z,9.92
2018-11-23T13:33:49.266Z,9.87
2018-11-23T13:36:17.762Z,9.80
2018-11-23T13:38:45.030Z,9.76
2018-11-23T13:41:12.328Z,9.71
2018-11-23T13:43:40.103Z,9.68
2018-11-23T13:46:07.383Z,9.64
2018-11-23T13:48:35.522Z,9.61
2018-11-23T13:51:03.272Z,9.64
2018-11-23T13:53:30.593Z,9.65
2018-11-23T13:55:57.992Z,9.63
2018-11-23T13:58:25.694Z,9.61
2018-11-23T14:00:52.978Z,9.62
2018-11-23T14:03:20.259Z,9.61
2018-11-23T14:05:47.917Z,9.61
2018-11-23T14:08:15.212Z,9.60
2018-11-23T14:10:43.497Z,9.60
2018-11-23T14:13:11.742Z,9.59
2018-11-23T14:15:38.894Z,9.57
2018-11-23T14:18:06.209Z,9.55
2018-11-23T14:20:34.721Z,9.51
2018-11-23T14:23:02.019Z,9.45
2018-11-23T14:25:31.428Z,9.40
2018-11-23T14:27:59.370Z,9.37
2018-11-23T14:30:28.733Z,9.33
2018-11-23T14:32:56.192Z,9.26
2018-11-23T14:35:25.367Z,9.13
2018-11-23T14:37:53.535Z,8.98
2018-11-23T14:40:20.868Z,8.80
2018-11-23T14:42:49.300Z,8.59
2018-11-23T14:45:17.526Z,8.38
2018-11-23T14:47:44.873Z,8.19
2018-11-23T14:50:13.519Z,8.02
2018-11-23T14:52:40.825Z,7.85
2018-11-23T14:55:08.115Z,7.72
2018-11-23T14:57:35.746Z,7.61
2018-11-23T15:00:05.690Z,7.52
2018-11-23T15:02:33.014Z,7.44
2018-11-23T15:05:02.098Z,7.33
2018-11-23T15:07:29.447Z,7.22
2018-11-23T15:09:56.802Z,7.09
2018-11-23T15:12:24.564Z,6.97
2018-11-23T15:14:51.857Z,6.85
2018-11-23T15:17:19.166Z,6.72
2018-11-23T15:19:46.477Z,6.63
2018-11-23T15:22:13.777Z,6.56
2018-11-23T15:24:44.918Z,6.47
2018-11-23T15:27:12.192Z,6.37
2018-11-23T15:29:39.477Z,6.27
2018-11-23T15:32:07.074Z,6.18
2018-11-23T15:34:34.349Z,6.08
2018-11-23T15:37:01.622Z,6.05
2018-11-23T15:39:29.251Z,5.98
2018-11-23T15:41:56.549Z,5.91
2018-11-23T15:44:23.845Z,5.86
2018-11-23T15:46:51.981Z,5.79
2018-11-23T15:49:19.644Z,5.72
2018-11-23T15:51:47.722Z,5.66
2018-11-23T15:54:16.198Z,5.60
2018-11-23T15:56:44.727Z,5.56
2018-11-23T15:59:14.157Z,5.51
2018-11-23T16:01:43.321Z,5.46
2018-11-23T16:04:12.282Z,5.40
2018-11-23T16:06:39.621Z,5.35
2018-11-23T16:09:07.427Z,5.28
2018-11-23T16:11:34.708Z,5.20
2018-11-23T16:14:02.064Z,5.09
2018-11-23T16:16:30.272Z,4.97
2018-11-23T16:18:57.629Z,4.87
2018-11-23T16:21:24.941Z,4.76
2018-11-23T16:23:56.556Z,4.66
2018-11-23T16:26:23.908Z,4.58
2018-11-23T16:28:51.230Z,4.51
2018-11-23T16:31:19.950Z,4.46
2018-11-23T16:33:47.271Z,4.41
2018-11-23T16:36:14.541Z,4.41
2018-11-23T16:38:42.236Z,4.36
2018-11-23T16:41:10.553Z,4.33
2018-11-23T16:43:37.824Z,4.27
2018-11-23T16:46:05.620Z,4.20
2018-11-23T16:48:34.319Z,4.13
2018-11-23T16:51:01.649Z,4.08
2018-11-23T16:53:29.742Z,4.04
2018-11-23T16:55:57.044Z,4.04
2018-11-23T16:58:24.416Z,4.05
2018-11-23T17:00:53.044Z,4.07
2018-11-23T17:03:21.677Z,4.08
2018-11-23T17:05:51.448Z,4.08
2018-11-23T17:08:19.612Z,4.07
2018-11-23T17:10:47.648Z,4.06
2018-11-23T17:13:16.303Z,4.05
2018-11-23T17:15:45.280Z,4.07
2018-11-23T17:18:13.225Z,4.07
2018-11-23T17:20:41.325Z,4.06
2018-11-23T17:23:09.996Z,4.05
2018-11-23T17:25:37.297Z,4.04
2018-11-23T17:28:06.007Z,4.03
2018-11-23T17:30:34.557Z,4.00
2018-11-23T17:33:01.874Z,3.96
2018-11-23T17:35:29.429Z,3.92
2018-11-23T17:37:57.192Z,3.87
2018-11-23T17:40:25.761Z,3.80
2018-11-23T17:42:53.200Z,3.76
2018-11-23T17:45:21.400Z,3.72
2018-11-23T17:47:48.828Z,3.67
2018-11-23T17:50:21.266Z,3.57
2018-11-23T17:52:49.413Z,3.45
2018-11-23T17:55:16.688Z,3.34
2018-11-23T17:57:45.293Z,3.24
2018-11-23T18:00:13.034Z,3.15
2018-11-23T18:02:40.439Z,3.09
2018-11-23T18:05:07.780Z,3.02
2018-11-23T18:07:35.890Z,2.95
2018-11-23T18:10:03.288Z,2.92
2018-11-23T18:12:30.562Z,2.90
2018-11-23T18:14:58.573Z,2.89
2018-11-23T18:17:25.840Z,2.89
2018-11-23T18:19:53.136Z,2.90
2018-11-23T18:22:20.748Z,2.89
2018-11-23T18:24:48.729Z,2.87
2018-11-23T18:27:16.019Z,2.82
2018-11-23T18:29:44.725Z,2.76
2018-11-23T18:32:12.003Z,2.72
2018-11-23T18:34:39.282Z,2.67
2018-11-23T18:37:06.905Z,2.61
2018-11-23T18:39:34.169Z,2.57
2018-11-23T18:42:02.549Z,2.53
2018-11-23T18:44:30.099Z,2.47
2018-11-23T18:46:57.663Z,2.45
2018-11-23T18:49:24.977Z,2.42
2018-11-23T18:51:53.682Z,2.40
2018-11-23T18:54:20.963Z,2.39
2018-11-23T18:56:48.230Z,2.41
2018-11-23T18:59:15.858Z,2.41
2018-11-23T19:01:43.496Z,2.41
2018-11-23T19:04:10.775Z,2.39
2018-11-23T19:06:38.453Z,2.38
2018-11-23T19:09:06.108Z,2.35
2018-11-23T19:11:33.386Z,2.33
2018-11-23T19:14:01.089Z,2.29
2018-11-23T19:16:28.396Z,2.26
2018-11-23T19:18:56.460Z,2.23
2018-11-23T19:21:24.013Z,2.20
2018-11-23T19:23:51.314Z,2.18
2018-11-23T19:26:19.229Z,2.20
2018-11-23T19:28:50.519Z,2.27
2018-11-23T19:31:17.818Z,2.30
2018-11-23T19:33:45.085Z,2.33
2018-11-23T19:36:12.708Z,2.33
2018-11-23T19:38:39.999Z,2.31
2018-11-23T19:41:07.360Z,2.29
2018-11-23T19:43:35.441Z,2.25
2018-11-23T19:46:02.798Z,2.22
2018-11-23T19:48:30.636Z,2.19
2018-11-23T19:50:58.252Z,2.16
2018-11-23T19:53:26.181Z,2.15
2018-11-23T19:55:54.434Z,2.14
2018-11-23T19:58:23.582Z,2.20
2018-11-23T20:00:51.552Z,2.27
2018-11-23T20:03:19.856Z,2.34
2018-11-23T20:05:48.479Z,2.36
2018-11-23T20:08:15.782Z,2.34
2018-11-23T20:10:43.062Z,2.32
2018-11-23T20:13:11.514Z,2.29
2018-11-23T20:15:38.793Z,2.26
2018-11-23T20:18:08.614Z,2.23
2018-11-23T20:20:35.870Z,2.22
2018-11-23T20:23:03.124Z,2.20
2018-11-23T20:25:30.797Z,2.19
2018-11-23T20:27:58.050Z,2.16
2018-11-23T20:30:25.413Z,2.11
2018-11-23T20:32:53.311Z,2.05
2018-11-23T20:35:21.321Z,2.00
2018-11-23T20:37:49.559Z,1.94
2018-11-23T20:40:17.182Z,1.89
2018-11-23T20:42:44.461Z,1.84
2018-11-23T20:45:12.289Z,1.80
2018-11-23T20:47:39.983Z,1.76
2018-11-23T20:50:07.260Z,1.69
2018-11-23T20:52:34.544Z,1.63
2018-11-23T20:55:02.121Z,1.57
2018-11-23T20:57:29.967Z,1.52
2018-11-23T20:59:57.269Z,1.48
2018-11-23T21:04:57.073Z,1.48
2018-11-23T21:07:24.364Z,1.46
2018-11-23T21:09:51.990Z,1.45
2018-11-23T21:12:19.506Z,1.43
2018-11-23T21:14:46.834Z,1.39
2018-11-23T21:17:14.609Z,1.36
2018-11-23T21:19:42.812Z,1.32
2018-11-23T21:22:10.417Z,1.30
2018-11-23T21:24:38.148Z,1.31
2018-11-23T21:27:05.407Z,1.36
2018-11-23T21:29:32.678Z,1.42
2018-11-23T21:32:00.345Z,1.47
2018-11-23T21:34:27.743Z,1.50
2018-11-23T21:36:55.003Z,1.52
2018-11-23T21:39:22.719Z,1.55
2018-11-23T21:41:49.993Z,1.54
2018-11-23T21:44:17.292Z,1.53
2018-11-23T21:46:44.853Z,1.51
2018-11-23T21:49:12.150Z,1.49
2018-11-23T21:51:39.431Z,1.45
2018-11-23T21:54:07.366Z,1.42
2018-11-23T21:56:34.638Z,1.39
2018-11-23T21:59:02.347Z,1.37
2018-11-23T22:01:31.634Z,1.34
2018-11-23T22:04:06.166Z,1.30
2018-11-23T22:06:27.093Z,1.30
2018-11-23T22:08:54.659Z,1.31
2018-11-23T22:11:21.921Z,1.30
2018-11-23T22:13:50.407Z,1.28
2018-11-23T22:16:19.959Z,1.23
2018-11-23T22:18:48.240Z,1.14
2018-11-23T22:21:15.524Z,1.05
2018-11-23T22:23:43.250Z,0.96
2018-11-23T22:26:10.516Z,0.90
2018-11-23T22:28:37.756Z,0.84
2018-11-23T22:31:05.441Z,0.79
2018-11-23T22:33:32.712Z,0.74
2018-11-23T22:35:59.968Z,0.68
2018-11-23T22:38:27.639Z,0.65
2018-11-23T22:40:54.925Z,0.67
2018-11-23T22:43:22.214Z,0.69
2018-11-23T22:45:49.765Z,0.69
2018-11-23T22:48:17.056Z,0.67
2018-11-23T22:50:44.329Z,0.63
2018-11-23T22:53:11.963Z,0.65
2018-11-23T22:55:40.370Z,0.66
2018-11-23T22:58:08.440Z,0.65
2018-11-23T23:00:38.740Z,0.66
2018-11-23T23:03:06.281Z,0.65
2018-11-23T23:05:33.679Z,0.64
2018-11-23T23:08:01.413Z,0.61
2018-11-23T23:10:28.677Z,0.58
2018-11-23T23:12:55.979Z,0.58
2018-11-23T23:15:23.672Z,0.57
2018-11-23T23:17:50.998Z,0.58
2018-11-23T23:20:18.263Z,0.59
2018-11-23T23:22:45.865Z,0.59
2018-11-23T23:25:13.144Z,0.60
2018-11-23T23:27:40.424Z,0.62
2018-11-23T23:30:08.592Z,0.63
2018-11-23T23:32:35.877Z,0.65
2018-11-23T23:35:03.235Z,0.66
2018-11-23T23:37:30.803Z,0.66
2018-11-23T23:39:58.089Z,0.65
2018-11-23T23:42:25.350Z,0.64
2018-11-23T23:44:52.961Z,0.63
2018-11-23T23:47:20.202Z,0.61
2018-11-23T23:49:47.447Z,0.58
2018-11-23T23:52:15.122Z,0.58
2018-11-23T23:54:42.393Z,0.55
2018-11-23T23:57:09.765Z,0.54
2018-11-23T23:59:37.490Z,0.50
